Time;durP1;ratioP1;P1;durP2;ratioP2;P2;SDS_P1;SDS_P2;PMS_P1;PMS_P2;Temp;Humidity;BMP_temperature;BMP_pressure;BME280_temperature;BME280_humidity;BME280_pressure;Samples;Min_cycle;Max_cycle;Signal;HPM_P1;HPM_P2
2021/12/13 00:01:15;;;;;;;177.88;52.38;;;-0.50;99.90;;;;;;5046194;28;20044;-77
2021/12/13 00:03:54;;;;;;;172.40;54.08;;;-0.50;99.90;;;;;;5080885;28;20045;-74
2021/12/13 00:06:27;;;;;;;179.88;54.00;;;-0.40;99.90;;;;;;5080876;28;20041;-76
2021/12/13 00:08:57;;;;;;;174.45;51.92;;;-0.40;99.90;;;;;;5023490;28;20068;-76
2021/12/13 00:11:27;;;;;;;167.73;51.10;;;-0.40;99.90;;;;;;5049635;28;20037;-76
2021/12/13 00:13:58;;;;;;;158.43;51.72;;;-0.40;99.90;;;;;;5043700;28;20469;-75
2021/12/13 00:16:29;;;;;;;163.55;51.67;;;-0.40;99.90;;;;;;5043601;28;21253;-75
2021/12/13 00:18:59;;;;;;;145.20;48.72;;;-0.40;99.90;;;;;;5047162;28;20117;-75
2021/12/13 00:21:38;;;;;;;142.65;47.67;;;-0.40;99.90;;;;;;5043056;28;20045;-75
2021/12/13 00:24:24;;;;;;;155.70;48.92;;;-0.40;99.90;;;;;;5047092;28;20124;-76
2021/12/13 00:26:59;;;;;;;150.68;47.58;;;-0.40;99.90;;;;;;5076959;28;20044;-76
2021/12/13 00:29:37;;;;;;;136.48;46.45;;;-0.40;99.90;;;;;;5078711;28;20052;-77
2021/12/13 00:32:22;;;;;;;131.80;46.47;;;-0.40;99.90;;;;;;5047636;28;20053;-75
2021/12/13 00:34:52;;;;;;;136.80;46.38;;;-0.40;99.90;;;;;;5050304;28;20438;-75
2021/12/13 00:37:29;;;;;;;138.00;45.40;;;-0.40;99.90;;;;;;5065402;28;20057;-77
2021/12/13 00:40:19;;;;;;;132.27;44.58;;;-0.40;99.90;;;;;;5049739;28;20052;-76
2021/12/13 00:43:00;;;;;;;125.32;42.60;;;-0.40;99.90;;;;;;5046438;28;20037;-77
2021/12/13 00:45:34;;;;;;;123.82;42.40;;;-0.50;99.90;;;;;;5050363;28;20033;-76
2021/12/13 00:48:04;;;;;;;121.93;41.55;;;-0.50;99.90;;;;;;5025189;28;20049;-76
2021/12/13 00:50:42;;;;;;;128.20;43.67;;;-0.50;99.90;;;;;;5048195;28;20047;-75
2021/12/13 00:53:09;;;;;;;121.72;44.40;;;-0.50;99.90;;;;;;5029357;28;20056;-75
2021/12/13 00:55:37;;;;;;;125.43;43.63;;;-0.50;99.90;;;;;;5043915;28;20033;-76
2021/12/13 00:58:07;;;;;;;123.40;44.70;;;-0.50;99.90;;;;;;5047204;28;20061;-76
2021/12/13 01:00:37;;;;;;;117.20;42.85;;;-0.50;99.90;;;;;;5032836;28;20047;-76
2021/12/13 01:03:11;;;;;;;125.72;43.28;;;-0.60;99.90;;;;;;5057896;28;20046;-76
2021/12/13 01:05:58;;;;;;;109.47;40.92;;;-0.60;99.90;;;;;;5052456;28;20127;-76
2021/12/13 01:08:42;;;;;;;115.38;42.75;;;-0.60;99.90;;;;;;5046842;28;20041;-76
2021/12/13 01:11:30;;;;;;;126.55;41.45;;;-0.60;99.90;;;;;;5028382;28;20114;-75
2021/12/13 01:14:39;;;;;;;113.95;40.38;;;-0.60;99.90;;;;;;5043279;28;20045;-76
2021/12/13 01:17:18;;;;;;;104.40;37.78;;;-0.60;99.90;;;;;;5044872;28;20107;-78
2021/12/13 01:19:52;;;;;;;112.22;40.20;;;-0.60;99.90;;;;;;5024147;28;20113;-76
2021/12/13 01:25:41;;;;;;;106.30;38.30;;;-0.60;99.90;;;;;;5041443;28;20039;-76
2021/12/13 01:28:17;;;;;;;104.25;39.33;;;-0.60;99.90;;;;;;5021287;28;20045;-76
2021/12/13 01:30:50;;;;;;;108.47;39.88;;;-0.60;99.90;;;;;;5039603;28;20068;-77
2021/12/13 01:33:18;;;;;;;115.15;41.90;;;-0.60;99.90;;;;;;5044520;28;20059;-77
2021/12/13 01:35:48;;;;;;;106.00;38.33;;;-0.60;99.90;;;;;;5044338;28;20470;-76
2021/12/13 01:38:19;;;;;;;96.30;38.70;;;-0.60;99.90;;;;;;5026632;28;20123;-77
2021/12/13 01:40:49;;;;;;;98.18;37.80;;;-0.60;99.90;;;;;;5018233;28;20072;-77
2021/12/13 01:43:25;;;;;;;92.15;36.95;;;-0.60;99.90;;;;;;5026439;28;20041;-77
2021/12/13 01:45:53;;;;;;;99.05;36.63;;;-0.60;99.90;;;;;;5034116;28;20036;-76
2021/12/13 01:48:34;;;;;;;94.40;36.57;;;-0.60;99.90;;;;;;5014759;28;20064;-75
2021/12/13 01:51:08;;;;;;;81.18;32.58;;;-0.70;99.90;;;;;;5051234;28;20044;-76
2021/12/13 01:53:45;;;;;;;85.72;32.70;;;-0.70;99.90;;;;;;5047106;28;20079;-76
2021/12/13 01:56:41;;;;;;;91.28;33.58;;;-0.70;99.90;;;;;;5026989;28;20052;-75
2021/12/13 01:59:28;;;;;;;93.75;35.00;;;-0.80;99.90;;;;;;5047027;28;20049;-76
2021/12/13 02:02:07;;;;;;;94.75;34.97;;;-0.80;99.90;;;;;;5046195;28;20057;-76
2021/12/13 02:04:34;;;;;;;104.68;36.03;;;-0.80;99.90;;;;;;5062347;28;20465;-74
2021/12/13 02:07:03;;;;;;;95.50;35.95;;;-0.80;99.90;;;;;;5031580;28;20076;-75
2021/12/13 02:09:39;;;;;;;97.57;35.90;;;-0.80;99.90;;;;;;5043133;28;20048;-74
2021/12/13 02:12:11;;;;;;;97.18;35.08;;;-0.80;99.90;;;;;;5046476;28;20044;-74
2021/12/13 02:14:48;;;;;;;89.35;32.45;;;-0.80;99.90;;;;;;5045912;28;20045;-75
2021/12/13 02:17:22;;;;;;;88.43;34.25;;;-0.80;99.90;;;;;;5045486;28;20064;-75
2021/12/13 02:19:57;;;;;;;94.13;33.85;;;-0.80;99.90;;;;;;5045034;28;20108;-75
2021/12/13 02:22:40;;;;;;;93.43;34.08;;;-0.80;99.90;;;;;;5047002;28;20561;-76
2021/12/13 02:25:09;;;;;;;96.95;34.38;;;-0.90;99.90;;;;;;5042945;28;20037;-75
2021/12/13 02:27:40;;;;;;;90.30;33.97;;;-0.90;99.90;;;;;;5029462;28;20041;-75
2021/12/13 02:30:19;;;;;;;89.03;30.65;;;-0.90;99.90;;;;;;5051719;28;20040;-75
2021/12/13 02:32:47;;;;;;;90.88;30.20;;;-0.90;99.90;;;;;;5043227;28;20127;-75
2021/12/13 02:35:14;;;;;;;78.95;29.70;;;-0.90;99.90;;;;;;5047049;28;20033;-75
2021/12/13 02:37:41;;;;;;;74.85;30.10;;;-1.00;99.90;;;;;;5043978;28;20034;-74
2021/12/13 02:40:11;;;;;;;88.30;31.50;;;-1.00;99.90;;;;;;5037926;28;20041;-75
2021/12/13 02:42:38;;;;;;;84.82;31.23;;;-1.00;99.90;;;;;;5042391;28;20040;-73
2021/12/13 02:45:13;;;;;;;69.97;27.90;;;-1.10;99.90;;;;;;5025595;28;20179;-75
2021/12/13 02:47:51;;;;;;;79.68;30.65;;;-1.10;99.90;;;;;;5019629;28;20075;-76
2021/12/13 02:50:30;;;;;;;87.25;31.77;;;-1.10;99.90;;;;;;5078675;28;20530;-75
2021/12/13 02:52:57;;;;;;;;;;;-1.10;99.90;;;;;;5054195;28;20775;-75
2021/12/13 02:55:28;;;;;;;76.13;30.08;;;-1.10;99.90;;;;;;5044420;28;19917;-75
2021/12/13 02:58:01;;;;;;;71.20;28.92;;;-1.10;99.90;;;;;;5042451;28;20472;-74
2021/12/13 03:02:41;;;;;;;71.03;30.27;;;-1.10;99.90;;;;;;5124954;27;20134;-74
2021/12/13 03:05:19;;;;;;;77.43;29.98;;;-1.20;99.90;;;;;;5097540;28;20511;-75
2021/12/13 03:07:52;;;;;;;73.60;30.88;;;-1.20;99.90;;;;;;5101175;28;20032;-74
2021/12/13 03:10:24;;;;;;;68.63;30.75;;;-1.20;99.90;;;;;;5100427;28;20048;-74
2021/12/13 03:12:51;;;;;;;66.43;30.10;;;-1.20;99.90;;;;;;5084389;28;20488;-74
2021/12/13 03:15:22;;;;;;;70.95;29.92;;;-1.20;99.90;;;;;;5086547;28;20459;-76
2021/12/13 03:17:55;;;;;;;71.20;30.95;;;-1.20;99.90;;;;;;5084796;28;20062;-76
2021/12/13 03:20:58;;;;;;;75.88;31.02;;;-1.20;99.90;;;;;;5075700;28;20091;-75
2021/12/13 03:23:50;;;;;;;69.00;30.25;;;-1.20;99.90;;;;;;5099225;28;20101;-75
2021/12/13 03:26:41;;;;;;;70.38;29.63;;;-1.30;99.90;;;;;;5080451;28;20132;-75
2021/12/13 03:29:16;;;;;;;67.97;29.55;;;-1.20;99.90;;;;;;5090711;28;20399;-77
2021/12/13 03:31:56;;;;;;;71.40;30.52;;;-1.20;99.90;;;;;;5078173;28;20040;-76
2021/12/13 03:34:35;;;;;;;72.13;30.83;;;-1.20;99.90;;;;;;5085370;28;20447;-75
2021/12/13 03:37:08;;;;;;;72.53;31.08;;;-1.30;99.90;;;;;;5099745;28;20509;-76
2021/12/13 03:39:39;;;;;;;68.53;30.83;;;-1.30;99.90;;;;;;5082007;28;20040;-75
2021/12/13 03:42:34;;;;;;;70.07;29.40;;;-1.30;99.90;;;;;;5104625;28;20089;-74
2021/12/13 03:45:09;;;;;;;73.03;31.90;;;-1.30;99.90;;;;;;5063678;28;20040;-76
2021/12/13 03:47:39;;;;;;;69.45;30.98;;;-1.30;99.90;;;;;;5077142;28;20055;-75
2021/12/13 03:50:16;;;;;;;72.57;29.95;;;-1.30;99.90;;;;;;5102816;28;20101;-75
2021/12/13 03:52:45;;;;;;;67.97;30.50;;;-1.30;99.90;;;;;;5079414;28;20040;-75
2021/12/13 03:55:16;;;;;;;68.82;30.45;;;-1.20;99.90;;;;;;5078745;28;20071;-74
2021/12/13 03:57:46;;;;;;;73.30;30.45;;;-1.20;99.90;;;;;;5068458;28;20024;-75
2021/12/13 04:00:18;;;;;;;71.50;30.83;;;-1.20;99.90;;;;;;5062511;28;20039;-76
2021/12/13 04:02:45;;;;;;;72.93;31.23;;;-1.20;99.90;;;;;;5097078;28;20066;-76
2021/12/13 04:05:17;;;;;;;67.72;30.05;;;-1.20;99.90;;;;;;5068350;28;20080;-76
2021/12/13 04:07:48;;;;;;;70.78;30.60;;;-1.20;99.90;;;;;;5081133;28;20040;-76
2021/12/13 04:10:21;;;;;;;68.72;31.23;;;-1.20;99.90;;;;;;5101470;28;20043;-76
2021/12/13 04:12:51;;;;;;;64.25;27.92;;;-1.20;99.90;;;;;;5084112;28;20465;-78
2021/12/13 04:15:22;;;;;;;69.47;30.05;;;-1.20;99.90;;;;;;5085754;28;20416;-77
2021/12/13 04:18:41;;;;;;;67.07;29.73;;;-1.20;99.90;;;;;;5090919;28;20044;-77
2021/12/13 04:20:40;;;;;;;67.57;29.48;;;-1.20;99.90;;;;;;5077991;28;20130;-75
2021/12/13 04:23:15;;;;;;;66.43;30.48;;;-1.20;99.90;;;;;;5082581;28;20070;-77
2021/12/13 04:25:46;;;;;;;64.35;28.52;;;-1.20;99.90;;;;;;5067917;28;20059;-75
2021/12/13 04:28:23;;;;;;;65.55;30.08;;;-1.20;99.90;;;;;;5066564;28;20050;-74
2021/12/13 04:30:56;;;;;;;65.75;28.33;;;-1.20;99.90;;;;;;5067356;28;20044;-75
2021/12/13 04:33:33;;;;;;;70.72;29.77;;;-1.20;99.90;;;;;;5048198;28;20040;-76
2021/12/13 04:36:19;;;;;;;67.10;28.73;;;-1.20;99.90;;;;;;5068913;28;20032;-77
2021/12/13 04:39:05;;;;;;;61.67;27.88;;;-1.20;99.90;;;;;;5067320;28;20040;-77
2021/12/13 04:41:40;;;;;;;61.45;29.35;;;-1.10;99.90;;;;;;5063951;28;20175;-76
2021/12/13 04:44:17;;;;;;;68.97;29.88;;;-1.20;99.90;;;;;;5053070;28;20504;-77
2021/12/13 04:46:48;;;;;;;60.47;27.83;;;-1.20;99.90;;;;;;5072445;28;20039;-78
2021/12/13 04:49:18;;;;;;;68.43;28.75;;;-1.20;99.90;;;;;;5092224;28;20040;-80
2021/12/13 04:51:54;;;;;;;69.78;29.48;;;-1.20;99.90;;;;;;5067408;28;20091;-77
2021/12/13 04:54:23;;;;;;;69.15;29.58;;;-1.20;99.90;;;;;;5067391;28;20094;-76
2021/12/13 04:56:50;;;;;;;80.28;31.08;;;-1.20;99.90;;;;;;5067280;28;20033;-77
2021/12/13 04:59:17;;;;;;;78.80;32.25;;;-1.20;99.90;;;;;;5066201;28;20067;-76
2021/12/13 05:01:47;;;;;;;72.10;30.67;;;-1.30;99.90;;;;;;5040436;28;20048;-76
2021/12/13 05:04:15;;;;;;;74.00;30.88;;;-1.30;99.90;;;;;;5067586;28;20066;-78
2021/12/13 05:06:43;;;;;;;78.88;33.10;;;-1.30;99.90;;;;;;5064416;28;20040;-77
2021/12/13 05:09:14;;;;;;;64.78;30.55;;;-1.30;99.90;;;;;;5069088;28;20063;-77
2021/12/13 05:11:53;;;;;;;73.45;30.13;;;-1.30;99.90;;;;;;5063297;28;20096;-77
2021/12/13 05:14:47;;;;;;;72.40;30.95;;;-1.30;99.90;;;;;;5082520;28;20035;-77
2021/12/13 05:17:18;;;;;;;78.63;30.65;;;-1.30;99.90;;;;;;5071578;28;20056;-76
2021/12/13 05:19:54;;;;;;;81.13;33.25;;;-1.30;99.90;;;;;;5086545;28;20407;-78
2021/12/13 05:22:21;;;;;;;78.03;30.75;;;-1.30;99.90;;;;;;5050340;28;20518;-77
2021/12/13 05:24:56;;;;;;;84.80;32.70;;;-1.30;99.90;;;;;;5059887;28;20043;-78
2021/12/13 05:27:34;;;;;;;89.63;35.03;;;-1.20;99.90;;;;;;5076445;28;20039;-78
2021/12/13 05:30:17;;;;;;;81.38;31.45;;;-1.20;99.90;;;;;;5080113;28;20036;-79
2021/12/13 05:32:49;;;;;;;80.38;32.53;;;-1.20;99.90;;;;;;5066579;28;20142;-77
2021/12/13 05:35:24;;;;;;;87.30;34.65;;;-1.20;99.90;;;;;;5086903;28;20063;-76
2021/12/13 05:37:54;;;;;;;77.43;32.03;;;-1.20;99.90;;;;;;5052005;28;20056;-76
2021/12/13 05:40:33;;;;;;;129.70;55.78;;;-1.20;99.90;;;;;;5088475;28;20059;-76
2021/12/13 05:43:01;;;;;;;;;;;-1.20;99.90;;;;;;5061289;28;20036;-75
2021/12/13 05:45:32;;;;;;;88.07;33.72;;;-1.20;99.90;;;;;;5081781;28;19919;-78
2021/12/13 05:48:07;;;;;;;85.32;34.03;;;-1.10;99.90;;;;;;5050793;28;20609;-77
2021/12/13 05:50:44;;;;;;;87.90;34.65;;;-1.10;99.90;;;;;;5061160;28;20051;-76
2021/12/13 05:53:14;;;;;;;85.63;34.00;;;-1.10;99.90;;;;;;5049423;28;20035;-76
2021/12/13 05:55:48;;;;;;;82.20;33.65;;;-1.00;99.90;;;;;;5089697;28;20048;-77
2021/12/13 05:58:31;;;;;;;88.43;35.00;;;-1.00;99.90;;;;;;5074752;28;20081;-77
2021/12/13 06:01:00;;;;;;;89.53;35.75;;;-1.00;99.90;;;;;;5073331;28;21592;-76
2021/12/13 06:03:32;;;;;;;;;;;-0.90;99.90;;;;;;5045228;28;20048;-74
2021/12/13 06:06:10;;;;;;;91.82;34.72;;;-0.90;99.90;;;;;;5085771;28;19985;-76
2021/12/13 06:08:49;;;;;;;82.25;33.47;;;-0.90;99.90;;;;;;5068049;28;20134;-76
2021/12/13 06:11:33;;;;;;;87.13;33.60;;;-0.90;99.90;;;;;;5062862;28;20067;-77
2021/12/13 06:14:06;;;;;;;88.22;34.47;;;-0.90;99.90;;;;;;5081638;28;20219;-77
2021/12/13 06:16:44;;;;;;;97.97;36.58;;;-0.90;99.90;;;;;;5066053;28;20032;-77
2021/12/13 06:19:23;;;;;;;92.07;33.88;;;-0.90;99.90;;;;;;5081899;28;20476;-76
2021/12/13 06:22:12;;;;;;;99.93;36.65;;;-0.90;99.90;;;;;;5048568;28;20036;-76
2021/12/13 06:24:45;;;;;;;90.63;34.45;;;-0.90;99.90;;;;;;5050668;28;20069;-80
2021/12/13 06:27:27;;;;;;;93.95;35.70;;;-0.80;99.90;;;;;;5071402;28;20090;-78
2021/12/13 06:30:10;;;;;;;92.85;34.95;;;-0.80;99.90;;;;;;5046318;28;20399;-79
2021/12/13 06:32:39;;;;;;;93.55;36.20;;;-0.80;99.90;;;;;;5049838;28;20060;-78
2021/12/13 06:35:28;;;;;;;97.53;37.15;;;-0.80;99.90;;;;;;5062643;28;20032;-83
2021/12/13 06:37:56;;;;;;;95.72;36.25;;;-0.80;99.90;;;;;;5077013;28;20734;-78
2021/12/13 06:40:29;;;;;;;96.25;35.53;;;-0.80;99.90;;;;;;5061492;28;20099;-78
2021/12/13 06:43:00;;;;;;;102.82;39.22;;;-0.70;99.90;;;;;;5046576;28;20409;-76
2021/12/13 06:45:34;;;;;;;108.93;38.30;;;-0.70;99.90;;;;;;5042820;28;20048;-75
2021/12/13 06:48:04;;;;;;;108.00;38.83;;;-0.70;99.90;;;;;;5046640;28;20176;-79
2021/12/13 06:50:38;;;;;;;108.35;40.10;;;-0.70;99.90;;;;;;5051443;28;20492;-78
2021/12/13 06:53:19;;;;;;;116.28;41.17;;;-0.70;99.90;;;;;;5066087;28;20032;-76
2021/12/13 06:55:46;;;;;;;121.13;40.28;;;-0.70;99.90;;;;;;5069214;28;20126;-76
2021/12/13 06:58:20;;;;;;;118.93;39.30;;;-0.60;99.90;;;;;;5080583;28;20074;-76
2021/12/13 07:00:52;;;;;;;112.43;39.80;;;-0.60;99.90;;;;;;5062456;28;20051;-77
2021/12/13 07:03:27;;;;;;;121.05;41.97;;;-0.60;99.90;;;;;;5055302;28;20528;-76
2021/12/13 07:05:57;;;;;;;104.03;38.90;;;-0.60;99.90;;;;;;5052330;28;20040;-76
2021/12/13 07:08:31;;;;;;;119.97;41.55;;;-0.60;99.90;;;;;;5071495;28;20372;-78
2021/12/13 07:11:12;;;;;;;112.57;39.75;;;-0.60;99.90;;;;;;5068927;28;20047;-78
2021/12/13 07:13:45;;;;;;;112.93;42.33;;;-0.60;99.90;;;;;;5048923;28;20409;-79
2021/12/13 07:16:26;;;;;;;109.45;40.25;;;-0.60;99.90;;;;;;5076029;28;20128;-76
2021/12/13 07:19:08;;;;;;;109.63;40.25;;;-0.60;99.90;;;;;;5051454;28;20067;-76
2021/12/13 07:21:59;;;;;;;116.60;41.05;;;-0.60;99.90;;;;;;5052717;28;20045;-77
2021/12/13 07:24:50;;;;;;;122.43;40.55;;;-0.60;99.90;;;;;;5054169;28;20032;-76
2021/12/13 07:27:19;;;;;;;116.20;41.17;;;-0.60;99.90;;;;;;5053182;28;20044;-77
2021/12/13 07:29:53;;;;;;;115.40;40.80;;;-0.60;99.90;;;;;;5056205;28;20139;-77
2021/12/13 07:32:30;;;;;;;108.45;41.40;;;-0.60;99.90;;;;;;5063230;28;20044;-79
2021/12/13 07:35:12;;;;;;;127.22;42.55;;;-0.60;99.90;;;;;;5051771;28;20048;-80
2021/12/13 07:37:44;;;;;;;115.97;41.22;;;-0.60;99.90;;;;;;5067921;28;20408;-80
2021/12/13 07:40:41;;;;;;;120.63;42.00;;;-0.60;99.90;;;;;;5067113;28;20048;-80
2021/12/13 07:43:26;;;;;;;116.97;42.47;;;-0.60;99.90;;;;;;5059208;28;20036;-78
2021/12/13 07:46:01;;;;;;;127.25;43.90;;;-0.60;99.90;;;;;;5058245;28;20039;-77
2021/12/13 07:48:49;;;;;;;118.18;41.53;;;-0.60;99.90;;;;;;5054953;28;20071;-75
2021/12/13 07:51:15;;;;;;;128.00;45.92;;;-0.50;99.90;;;;;;5090819;28;20046;-75
2021/12/13 07:53:47;;;;;;;119.97;43.47;;;-0.50;99.90;;;;;;5051591;28;20108;-75
2021/12/13 07:56:24;;;;;;;130.48;43.72;;;-0.50;99.90;;;;;;5063623;28;20040;-75
2021/12/13 07:58:58;;;;;;;136.63;46.15;;;-0.40;99.90;;;;;;5070552;28;20123;-76
2021/12/13 08:01:27;;;;;;;118.07;43.25;;;-0.40;99.90;;;;;;5072902;28;20052;-75
2021/12/13 08:03:58;;;;;;;;;;;-0.40;99.90;;;;;;5054906;28;20056;-73
2021/12/13 08:06:42;;;;;;;126.70;44.10;;;-0.30;99.90;;;;;;5084161;28;20209;-74
2021/12/13 08:09:18;;;;;;;124.00;45.35;;;-0.30;99.90;;;;;;5071770;28;20036;-75
2021/12/13 08:11:49;;;;;;;127.78;46.15;;;-0.30;99.90;;;;;;5060879;28;20039;-75
2021/12/13 08:14:29;;;;;;;131.98;45.17;;;-0.20;99.90;;;;;;5090686;28;20052;-76
2021/12/13 08:17:06;;;;;;;132.43;45.88;;;-0.20;99.90;;;;;;5055422;28;20082;-75
2021/12/13 08:19:33;;;;;;;134.95;46.78;;;-0.10;99.90;;;;;;5081811;28;20489;-76
2021/12/13 08:22:02;;;;;;;139.15;48.08;;;-0.10;99.90;;;;;;5056431;28;20044;-75
2021/12/13 08:24:31;;;;;;;;;;;-0.10;99.90;;;;;;5074357;28;20040;-75
2021/12/13 08:27:16;;;;;;;122.03;45.33;;;0.00;99.90;;;;;;5080914;28;20045;-75
2021/12/13 08:29:43;;;;;;;129.95;46.72;;;0.10;99.90;;;;;;5090846;28;20102;-74
2021/12/13 08:32:19;;;;;;;128.73;46.75;;;0.10;99.90;;;;;;5041690;28;20051;-75
2021/12/13 08:34:56;;;;;;;126.55;45.13;;;0.10;99.90;;;;;;5093111;28;20036;-75
2021/12/13 08:37:29;;;;;;;130.77;47.67;;;0.10;99.90;;;;;;5062257;28;20071;-75
2021/12/13 08:40:06;;;;;;;132.85;46.53;;;0.20;99.90;;;;;;5057372;28;20135;-75
2021/12/13 08:42:38;;;;;;;131.15;48.55;;;0.20;99.90;;;;;;5074010;28;20439;-76
2021/12/13 08:45:12;;;;;;;135.13;48.47;;;0.30;99.90;;;;;;5062893;28;20441;-75
2021/12/13 08:47:48;;;;;;;129.80;48.67;;;0.30;99.90;;;;;;5067368;28;20044;-75
2021/12/13 08:50:26;;;;;;;126.55;47.88;;;0.30;99.90;;;;;;5079071;28;20443;-75
2021/12/13 08:53:06;;;;;;;134.32;49.17;;;0.30;99.90;;;;;;5072326;28;20036;-76
2021/12/13 08:55:37;;;;;;;128.93;49.58;;;0.30;99.90;;;;;;5070494;28;20036;-76
2021/12/13 08:58:14;;;;;;;131.80;51.40;;;0.40;99.90;;;;;;5079304;28;20396;-77
2021/12/13 09:00:55;;;;;;;132.13;53.17;;;0.40;99.90;;;;;;5090724;28;20039;-76
2021/12/13 09:03:41;;;;;;;130.65;51.25;;;0.40;99.90;;;;;;5069871;28;20040;-76
2021/12/13 09:06:34;;;;;;;141.80;52.72;;;0.40;99.90;;;;;;5083920;28;20043;-74
2021/12/13 09:09:14;;;;;;;127.18;51.17;;;0.40;99.90;;;;;;5102971;28;20066;-75
2021/12/13 09:11:43;;;;;;;134.80;51.13;;;0.40;99.90;;;;;;5073717;28;20040;-76
2021/12/13 09:14:16;;;;;;;127.00;51.83;;;0.40;99.90;;;;;;5057002;28;20052;-76
2021/12/13 09:16:57;;;;;;;134.98;53.53;;;0.50;99.90;;;;;;5061242;28;20504;-75
2021/12/13 09:19:32;;;;;;;128.13;51.88;;;0.50;99.90;;;;;;5052665;28;20566;-76
2021/12/13 09:22:01;;;;;;;128.88;53.33;;;0.50;99.90;;;;;;5072517;28;20028;-76
2021/12/13 09:24:37;;;;;;;124.72;53.33;;;0.50;99.90;;;;;;5057240;28;20040;-74
2021/12/13 09:27:12;;;;;;;125.88;52.80;;;0.60;99.90;;;;;;5062926;28;20072;-74
2021/12/13 09:29:52;;;;;;;125.72;52.40;;;0.60;99.90;;;;;;5074083;28;20373;-76
2021/12/13 09:32:23;;;;;;;133.65;53.90;;;0.60;99.90;;;;;;5053206;28;20036;-75
2021/12/13 09:35:21;;;;;;;141.63;57.47;;;0.60;99.90;;;;;;5037826;28;20047;-75
2021/12/13 09:37:49;;;;;;;152.13;59.47;;;0.70;99.90;;;;;;5071917;28;20027;-75
2021/12/13 09:40:18;;;;;;;139.73;58.35;;;0.70;99.90;;;;;;5089635;28;20044;-75
2021/12/13 09:42:51;;;;;;;136.90;58.63;;;0.70;99.90;;;;;;5045660;28;20080;-77
2021/12/13 09:45:29;;;;;;;140.20;58.95;;;0.70;99.90;;;;;;5062961;28;20045;-75
2021/12/13 09:47:56;;;;;;;139.35;57.97;;;0.70;99.90;;;;;;5071061;28;20047;-77
2021/12/13 09:50:27;;;;;;;134.07;57.10;;;0.40;99.90;;;;;;5052020;28;20036;-76
2021/12/13 09:53:06;;;;;;;146.15;59.08;;;0.70;99.90;;;;;;5064571;28;20051;-77
2021/12/13 09:55:41;;;;;;;136.77;57.55;;;0.70;99.90;;;;;;5070318;28;20101;-77
2021/12/13 09:58:36;;;;;;;147.80;59.75;;;0.70;99.90;;;;;;5065692;28;20044;-76
2021/12/13 10:01:12;;;;;;;148.05;59.22;;;0.70;99.90;;;;;;5050161;28;20415;-74
2021/12/13 10:03:58;;;;;;;143.50;59.70;;;0.70;99.90;;;;;;5061186;28;20100;-75
2021/12/13 10:06:38;;;;;;;148.80;61.92;;;0.70;99.90;;;;;;5070427;28;20037;-74
2021/12/13 10:09:39;;;;;;;153.05;61.78;;;0.70;99.90;;;;;;5077616;28;20024;-74
2021/12/13 10:12:34;;;;;;;154.27;61.67;;;0.70;99.90;;;;;;5062971;28;20055;-75
2021/12/13 10:15:15;;;;;;;143.85;61.20;;;0.70;99.90;;;;;;5059439;28;20506;-74
2021/12/13 10:17:45;;;;;;;149.70;61.00;;;0.70;99.90;;;;;;5050385;28;20055;-75
2021/12/13 10:20:35;;;;;;;169.05;67.15;;;0.70;99.90;;;;;;5081938;28;20032;-75
2021/12/13 10:23:04;;;;;;;156.88;63.60;;;0.70;99.90;;;;;;5082528;28;20101;-74
2021/12/13 10:25:35;;;;;;;150.73;63.05;;;0.70;99.90;;;;;;5052973;28;20066;-74
2021/12/13 10:28:04;;;;;;;156.18;63.08;;;0.60;99.90;;;;;;5080750;28;20055;-74
2021/12/13 10:30:39;;;;;;;171.70;66.90;;;0.60;99.90;;;;;;5066492;28;20106;-76
2021/12/13 10:33:07;;;;;;;167.50;65.68;;;0.60;99.90;;;;;;5070498;28;20047;-76
2021/12/13 10:35:40;;;;;;;155.63;61.85;;;0.60;99.90;;;;;;5084410;28;20146;-75
2021/12/13 10:38:18;;;;;;;162.85;65.18;;;0.50;99.90;;;;;;5066312;28;20039;-75
2021/12/13 10:41:10;;;;;;;160.32;63.75;;;0.50;99.90;;;;;;5087670;28;20032;-75
2021/12/13 10:43:41;;;;;;;161.07;66.72;;;0.50;99.90;;;;;;5059276;28;20063;-75
2021/12/13 10:46:28;;;;;;;171.00;67.22;;;0.50;99.90;;;;;;5065236;28;20036;-77
2021/12/13 10:48:59;;;;;;;156.27;63.95;;;0.50;99.90;;;;;;5088422;28;20526;-77
2021/12/13 10:51:33;;;;;;;165.35;66.00;;;0.50;99.90;;;;;;5064075;28;20399;-77
2021/12/13 10:54:04;;;;;;;169.90;67.53;;;0.50;99.90;;;;;;5061590;28;20041;-77
2021/12/13 10:56:37;;;;;;;160.40;65.90;;;0.50;99.90;;;;;;5081626;28;20101;-77
2021/12/13 10:59:07;;;;;;;161.63;67.95;;;0.50;99.90;;;;;;5084727;28;20399;-76
2021/12/13 11:01:38;;;;;;;164.93;68.40;;;0.60;99.90;;;;;;5082954;28;20496;-76
2021/12/13 11:04:09;;;;;;;155.55;65.63;;;0.50;99.90;;;;;;5089718;28;20036;-76
2021/12/13 11:06:39;;;;;;;162.68;70.15;;;0.50;99.90;;;;;;5076906;28;20048;-76
2021/12/13 11:09:10;;;;;;;178.45;72.50;;;0.60;99.90;;;;;;5064761;28;20036;-77
2021/12/13 11:11:40;;;;;;;181.05;72.65;;;0.60;99.90;;;;;;5064439;28;20634;-76
2021/12/13 11:14:12;;;;;;;174.82;68.97;;;0.60;99.90;;;;;;5086444;28;20048;-77
2021/12/13 11:16:42;;;;;;;162.80;67.88;;;0.50;99.90;;;;;;5085458;28;20077;-77
2021/12/13 11:19:13;;;;;;;171.20;71.43;;;0.50;99.90;;;;;;5071790;28;20109;-77
2021/12/13 11:21:43;;;;;;;164.98;67.80;;;0.60;99.90;;;;;;5053511;28;20115;-76
2021/12/13 11:24:20;;;;;;;160.55;67.82;;;0.60;99.90;;;;;;5069488;28;20041;-76
2021/12/13 11:26:51;;;;;;;169.18;67.95;;;0.60;99.90;;;;;;5040529;28;20135;-77
2021/12/13 11:29:17;;;;;;;173.07;70.63;;;0.60;99.90;;;;;;5064986;28;20056;-76
2021/12/13 11:31:52;;;;;;;182.13;70.35;;;0.70;99.90;;;;;;5062153;28;20039;-76
2021/12/13 11:34:45;;;;;;;170.55;71.63;;;0.70;99.90;;;;;;5095979;28;20058;-77
2021/12/13 11:37:11;;;;;;;172.65;70.68;;;0.70;99.90;;;;;;5069836;28;20430;-76
2021/12/13 11:40:09;;;;;;;176.75;70.32;;;0.70;99.90;;;;;;5054767;28;20048;-76
2021/12/13 11:43:12;;;;;;;182.85;72.65;;;0.70;99.90;;;;;;5072113;28;20094;-76
2021/12/13 11:46:00;;;;;;;176.50;70.95;;;0.70;99.90;;;;;;5055106;28;20044;-79
2021/12/13 11:49:14;;;;;;;182.57;76.68;;;0.70;99.90;;;;;;5091938;28;20040;-77
2021/12/13 11:52:07;;;;;;;181.00;72.97;;;0.70;99.90;;;;;;4993991;28;20080;-76
2021/12/13 11:54:46;;;;;;;190.20;75.53;;;0.60;99.90;;;;;;4973764;28;20038;-76
2021/12/13 11:57:46;;;;;;;184.10;73.50;;;0.60;99.90;;;;;;4991479;28;20049;-76
2021/12/13 12:00:15;;;;;;;192.43;75.20;;;0.60;99.90;;;;;;4984158;28;20546;-76
2021/12/13 12:03:17;;;;;;;192.13;75.97;;;0.60;99.90;;;;;;4998837;28;20062;-76
2021/12/13 12:06:04;;;;;;;187.43;77.25;;;0.70;99.90;;;;;;4973066;28;20034;-77
2021/12/13 12:08:42;;;;;;;187.40;72.88;;;0.70;99.90;;;;;;4997620;28;20046;-76
2021/12/13 12:11:37;;;;;;;187.93;76.18;;;0.70;99.90;;;;;;4981068;28;20138;-77
2021/12/13 12:14:11;;;;;;;188.57;76.18;;;0.70;99.90;;;;;;4984524;28;20498;-77
2021/12/13 12:16:50;;;;;;;181.18;75.10;;;0.70;99.90;;;;;;5009838;28;20050;-75
2021/12/13 12:19:33;;;;;;;193.02;73.50;;;0.70;99.90;;;;;;5010502;28;20089;-75
2021/12/13 12:22:15;;;;;;;181.55;74.28;;;0.70;99.90;;;;;;4999445;28;20038;-77
2021/12/13 12:24:49;;;;;;;194.20;79.00;;;0.60;99.90;;;;;;5001864;28;20059;-76
2021/12/13 12:27:17;;;;;;;194.20;76.00;;;0.60;99.90;;;;;;5093514;28;20036;-76
2021/12/13 12:29:51;;;;;;;188.07;76.70;;;0.60;99.90;;;;;;5070703;28;20117;-76
2021/12/13 12:32:33;;;;;;;195.32;76.60;;;0.60;99.90;;;;;;5072055;28;20298;-77
2021/12/13 12:35:01;;;;;;;184.52;75.55;;;0.50;99.90;;;;;;5069681;28;20367;-77
2021/12/13 12:38:02;;;;;;;189.25;75.85;;;0.50;99.90;;;;;;5086287;28;20056;-76
2021/12/13 12:40:45;;;;;;;207.07;77.88;;;0.50;99.90;;;;;;5087117;28;20044;-77
2021/12/13 12:43:15;;;;;;;192.00;77.10;;;0.50;99.90;;;;;;5071551;28;20089;-76
2021/12/13 12:45:49;;;;;;;193.35;78.05;;;0.50;99.90;;;;;;5046423;28;20059;-76
2021/12/13 12:48:24;;;;;;;195.45;81.00;;;0.50;99.90;;;;;;5071974;28;20497;-76
2021/12/13 12:50:57;;;;;;;196.93;79.47;;;0.50;99.90;;;;;;5041854;28;20719;-76
2021/12/13 12:53:31;;;;;;;199.50;80.85;;;0.50;99.90;;;;;;5066087;28;20072;-76
2021/12/13 12:56:21;;;;;;;194.55;78.95;;;0.50;99.90;;;;;;5084159;28;20102;-77
2021/12/13 12:59:12;;;;;;;211.20;81.22;;;0.50;99.90;;;;;;5069704;28;20063;-77
2021/12/13 13:01:59;;;;;;;213.43;79.68;;;0.50;99.90;;;;;;5065835;28;20056;-76
2021/12/13 13:04:38;;;;;;;202.82;82.43;;;0.40;99.90;;;;;;5044531;28;20037;-77
2021/12/13 13:07:15;;;;;;;210.73;83.80;;;0.40;99.90;;;;;;5045520;28;20052;-77
2021/12/13 13:09:49;;;;;;;218.70;85.32;;;0.30;99.90;;;;;;5053345;28;20491;-76
2021/12/13 13:12:30;;;;;;;226.68;87.63;;;0.30;99.90;;;;;;5058957;28;20052;-78
2021/12/13 13:15:04;;;;;;;207.98;82.78;;;0.30;99.90;;;;;;5065661;28;20576;-76
2021/12/13 13:17:34;;;;;;;202.18;82.32;;;0.20;99.90;;;;;;5064738;28;20044;-77